createdAt,value
2018-05-21T00:00:06.388Z,11.94
2018-05-21T00:01:05.839Z,11.94
2018-05-21T00:02:05.841Z,11.99
2018-05-21T00:03:06.333Z,11.99
2018-05-21T00:04:06.093Z,11.96
2018-05-21T00:05:05.886Z,11.95
2018-05-21T00:06:06.081Z,11.9
2018-05-21T00:07:06.057Z,11.85
2018-05-21T00:08:06.332Z,11.88
2018-05-21T00:09:05.792Z,11.76
2018-05-21T00:10:06.042Z,11.88
2018-05-21T00:11:06.038Z,11.83
2018-05-21T00:12:06.301Z,11.82
2018-05-21T00:13:06.286Z,11.79
2018-05-21T00:14:06.277Z,11.79
2018-05-21T00:15:05.731Z,11.73
2018-05-21T00:16:06.008Z,11.7
2018-05-21T00:17:05.721Z,11.75
2018-05-21T00:18:05.717Z,11.55
2018-05-21T00:19:05.963Z,11.58
2018-05-21T00:20:06.240Z,11.49
2018-05-21T00:21:05.692Z,11.52
2018-05-21T00:22:05.964Z,11.51
2018-05-21T00:23:05.922Z,11.39
2018-05-21T00:24:06.005Z,11.47
2018-05-21T00:25:05.653Z,11.43
2018-05-21T00:26:05.660Z,11.4
2018-05-21T00:27:06.149Z,11.37
2018-05-21T00:28:05.921Z,11.36
2018-05-21T00:29:05.903Z,11.29
2018-05-21T00:30:05.631Z,11.27
2018-05-21T00:31:06.114Z,11.32
2018-05-21T00:32:05.851Z,11.24
2018-05-21T00:33:05.869Z,11.24
2018-05-21T00:34:05.858Z,11.25
2018-05-21T00:35:05.599Z,11.27
2018-05-21T00:36:05.835Z,11.29
2018-05-21T00:37:05.584Z,11.25
2018-05-21T00:38:05.808Z,11.27
2018-05-21T00:39:06.096Z,11.17
2018-05-21T00:40:05.558Z,11.22
2018-05-21T00:41:06.080Z,11.18
2018-05-21T00:42:05.797Z,11.22
2018-05-21T00:43:05.766Z,11.14
2018-05-21T00:44:05.794Z,11.22
2018-05-21T00:45:05.778Z,11.22
2018-05-21T00:46:06.039Z,11.09
2018-05-21T00:47:05.988Z,11.11
2018-05-21T00:48:05.981Z,11.18
2018-05-21T00:49:06.023Z,11.09
2018-05-21T00:50:05.732Z,11.14
2018-05-21T00:51:05.730Z,11.11
2018-05-21T00:52:05.696Z,11.09
2018-05-21T00:53:05.973Z,11.19
2018-05-21T00:54:05.703Z,11.14
2018-05-21T00:55:05.926Z,11.11
2018-05-21T00:56:05.695Z,11.19
2018-05-21T00:57:05.903Z,11.18
2018-05-21T00:58:05.916Z,11.17
2018-05-21T00:59:05.900Z,11.22
2018-05-21T01:00:05.662Z,11.25
2018-05-21T01:01:05.647Z,11.18
2018-05-21T01:02:05.890Z,11.21
2018-05-21T01:03:05.863Z,11.15
2018-05-21T01:04:05.863Z,11.24
2018-05-21T01:05:05.354Z,11.18
2018-05-21T01:06:05.856Z,11.15
2018-05-21T01:07:05.578Z,11.1
2018-05-21T01:08:05.861Z,11.07
2018-05-21T01:09:05.864Z,11.1
2018-05-21T01:10:05.320Z,11.1
2018-05-21T01:11:05.794Z,11.1
2018-05-21T01:12:05.874Z,11.03
2018-05-21T01:13:05.789Z,11.06
2018-05-21T01:14:05.790Z,11.06
2018-05-21T01:15:05.506Z,10.97
2018-05-21T01:16:05.796Z,10.91
2018-05-21T01:17:05.514Z,11.03
2018-05-21T01:18:05.757Z,10.99
2018-05-21T01:19:05.735Z,10.99
2018-05-21T01:20:05.467Z,10.97
2018-05-21T01:21:05.482Z,10.97
2018-05-21T01:22:05.474Z,10.91
2018-05-21T01:23:05.728Z,10.91
2018-05-21T01:24:05.691Z,10.84
2018-05-21T01:25:05.708Z,10.88
2018-05-21T01:26:05.424Z,10.89
2018-05-21T01:27:05.440Z,10.94
2018-05-21T01:28:05.410Z,10.94
2018-05-21T01:29:05.678Z,10.88
2018-05-21T01:30:05.409Z,10.82
2018-05-21T01:31:05.669Z,10.86
2018-05-21T01:32:05.630Z,10.88
2018-05-21T01:33:05.642Z,10.86
2018-05-21T01:34:05.625Z,10.88
2018-05-21T01:35:05.341Z,10.74
2018-05-21T01:36:05.586Z,10.73
2018-05-21T01:37:05.619Z,10.7
2018-05-21T01:38:05.595Z,10.7
2018-05-21T01:39:05.608Z,10.76
2018-05-21T01:40:05.304Z,10.68
2018-05-21T01:41:05.316Z,10.71
2018-05-21T01:42:05.553Z,10.76
2018-05-21T01:43:05.562Z,10.73
2018-05-21T01:44:05.523Z,10.7
2018-05-21T01:45:05.553Z,10.78
2018-05-21T01:46:05.521Z,10.64
2018-05-21T01:47:05.276Z,10.67
2018-05-21T01:48:05.235Z,10.63
2018-05-21T01:49:05.488Z,10.67
2018-05-21T01:50:05.509Z,10.68
2018-05-21T01:51:05.510Z,10.66
2018-05-21T01:52:05.488Z,10.63
2018-05-21T01:53:05.197Z,10.66
2018-05-21T01:54:05.460Z,10.71
2018-05-21T01:55:05.432Z,10.66
2018-05-21T01:56:05.466Z,10.66
2018-05-21T01:57:05.421Z,10.63
2018-05-21T01:58:05.419Z,10.66
2018-05-21T01:59:05.431Z,10.61
2018-05-21T02:00:05.386Z,10.6
2018-05-21T02:01:05.430Z,10.52
2018-05-21T02:02:05.384Z,10.55
2018-05-21T02:03:05.401Z,10.56
2018-05-21T02:04:05.353Z,10.56
2018-05-21T02:05:05.354Z,10.51
2018-05-21T02:06:05.350Z,10.48
2018-05-21T02:07:05.109Z,10.42
2018-05-21T02:08:05.354Z,10.44
2018-05-21T02:09:05.332Z,10.42
2018-05-21T02:10:05.057Z,10.33
2018-05-21T02:11:05.296Z,10.36
2018-05-21T02:12:05.319Z,10.34
2018-05-21T02:13:05.282Z,10.34
2018-05-21T02:14:05.306Z,10.32
2018-05-21T02:15:05.010Z,10.27
2018-05-21T02:16:05.029Z,10.29
2018-05-21T02:17:05.247Z,10.32
2018-05-21T02:18:05.253Z,10.32
2018-05-21T02:19:05.230Z,10.26
2018-05-21T02:20:05.061Z,10.3
2018-05-21T02:21:05.256Z,10.27
2018-05-21T02:22:05.220Z,10.23
2018-05-21T02:23:05.204Z,10.2
2018-05-21T02:24:05.213Z,10.2
2018-05-21T02:25:04.923Z,10.26
2018-05-21T02:26:05.179Z,10.2
2018-05-21T02:27:05.599Z,10.2
2018-05-21T02:28:05.183Z,10.2
2018-05-21T02:29:05.151Z,10.17
2018-05-21T02:30:05.175Z,10.17
2018-05-21T02:31:04.885Z,10.18
2018-05-21T02:32:05.174Z,10.22
2018-05-21T02:33:05.104Z,10.2
2018-05-21T02:34:04.865Z,10.2
2018-05-21T02:35:05.090Z,10.09
2018-05-21T02:36:04.859Z,10.17
2018-05-21T02:37:04.820Z,10.08
2018-05-21T02:38:04.847Z,10.15
2018-05-21T02:39:05.087Z,10.01
2018-05-21T02:40:05.081Z,10.01
2018-05-21T02:41:04.792Z,10.11
2018-05-21T02:42:05.042Z,10.14
2018-05-21T02:43:05.026Z,10.11
2018-05-21T02:44:05.045Z,10.05
2018-05-21T02:45:05.006Z,10.08
2018-05-21T02:46:05.024Z,10.07
2018-05-21T02:47:04.983Z,10.11
2018-05-21T02:48:05.007Z,10.07
2018-05-21T02:49:04.972Z,10.07
2018-05-21T02:50:04.969Z,9.96
2018-05-21T02:51:04.723Z,10.01
2018-05-21T02:52:04.953Z,9.94
2018-05-21T02:53:04.932Z,10.01
2018-05-21T02:54:04.686Z,9.99
2018-05-21T02:55:04.694Z,10.05
2018-05-21T02:56:04.676Z,9.96
2018-05-21T02:57:04.909Z,10.04
2018-05-21T02:58:04.901Z,10.02
2018-05-21T02:59:04.877Z,10.04
2018-05-21T03:00:04.644Z,10.02
2018-05-21T03:01:04.609Z,10.02
2018-05-21T03:02:04.624Z,10.04
2018-05-21T03:03:04.842Z,10.11
2018-05-21T03:04:04.865Z,10.01
2018-05-21T03:05:04.826Z,10.08
2018-05-21T03:06:04.832Z,10.05
2018-05-21T03:07:04.556Z,10.07
2018-05-21T03:08:04.836Z,10.09
2018-05-21T03:09:04.568Z,10.07
2018-05-21T03:10:04.548Z,10.07
2018-05-21T03:11:04.795Z,10.11
2018-05-21T03:12:04.510Z,10.09
2018-05-21T03:13:04.523Z,10.05
2018-05-21T03:14:04.766Z,10.12
2018-05-21T03:15:04.486Z,10.2
2018-05-21T03:16:04.504Z,10.18
2018-05-21T03:17:04.729Z,10.17
2018-05-21T03:18:04.746Z,10.22
2018-05-21T03:19:04.702Z,10.23
2018-05-21T03:20:04.727Z,10.33
2018-05-21T03:21:04.430Z,10.38
2018-05-21T03:22:04.439Z,10.33
2018-05-21T03:23:04.669Z,10.38
2018-05-21T03:24:04.174Z,10.42
2018-05-21T03:25:04.683Z,10.33
2018-05-21T03:26:04.658Z,10.33
2018-05-21T03:27:04.378Z,10.38
2018-05-21T03:28:04.367Z,10.38
2018-05-21T03:29:04.384Z,10.42
2018-05-21T03:30:04.654Z,10.45
2018-05-21T03:31:04.638Z,10.44
2018-05-21T03:32:04.335Z,10.44
2018-05-21T03:33:04.092Z,10.42
2018-05-21T03:34:04.321Z,10.44
2018-05-21T03:35:04.602Z,10.45
2018-05-21T03:36:04.306Z,10.45
2018-05-21T03:37:04.062Z,10.56
2018-05-21T03:38:04.041Z,10.53
2018-05-21T03:39:04.568Z,10.53
2018-05-21T03:40:04.268Z,10.64
2018-05-21T03:41:04.285Z,10.79
2018-05-21T03:42:04.264Z,10.74
2018-05-21T03:43:04.499Z,10.96
2018-05-21T03:44:04.231Z,11.04
2018-05-21T03:45:04.521Z,11.18
2018-05-21T03:46:04.233Z,11.28
2018-05-21T03:47:03.982Z,11.39
2018-05-21T03:48:04.452Z,11.55
2018-05-21T03:49:04.477Z,11.75
2018-05-21T03:50:04.183Z,11.88
2018-05-21T03:51:04.212Z,11.99
2018-05-21T03:52:04.428Z,12.16
2018-05-21T03:53:04.194Z,12.28
2018-05-21T03:54:04.427Z,12.45
2018-05-21T03:55:04.438Z,12.56
2018-05-21T03:56:03.886Z,12.71
2018-05-21T03:57:04.582Z,12.86
2018-05-21T03:58:03.886Z,13.04
2018-05-21T03:59:04.151Z,13.17
2018-05-21T04:00:04.409Z,13.38
2018-05-21T04:01:04.121Z,13.63
2018-05-21T04:02:04.377Z,13.87
2018-05-21T04:03:04.350Z,14.09
2018-05-21T04:04:04.120Z,14.2
2018-05-21T04:05:04.090Z,14.29
2018-05-21T04:06:04.352Z,14.36
2018-05-21T04:07:04.369Z,14.62
2018-05-21T04:08:04.069Z,14.81
2018-05-21T04:09:03.838Z,14.92
2018-05-21T04:10:04.335Z,15.06
2018-05-21T04:11:03.836Z,15.14
2018-05-21T04:12:04.558Z,15.32
2018-05-21T04:13:04.313Z,15.44
2018-05-21T04:14:04.053Z,15.44
2018-05-21T04:15:04.342Z,15.5
2018-05-21T04:16:04.324Z,15.75
2018-05-21T04:17:04.292Z,15.97
2018-05-21T04:18:04.042Z,16.07
2018-05-21T04:19:04.278Z,16.14
2018-05-21T04:20:04.053Z,16.2
2018-05-21T04:21:04.281Z,16.41
2018-05-21T04:22:04.044Z,16.56
2018-05-21T04:23:04.266Z,16.75
2018-05-21T04:24:04.046Z,16.85
2018-05-21T04:25:04.267Z,17.07
2018-05-21T04:26:04.023Z,17.3
2018-05-21T04:27:04.266Z,17.48
2018-05-21T04:28:04.290Z,17.56
2018-05-21T04:29:04.101Z,17.64
2018-05-21T04:30:04.017Z,17.9
2018-05-21T04:31:04.269Z,18.08
2018-05-21T04:32:04.283Z,18.32
2018-05-21T04:33:04.001Z,18.63
2018-05-21T04:34:03.758Z,18.82
2018-05-21T04:35:04.011Z,18.99
2018-05-21T04:36:04.025Z,19.28
2018-05-21T04:37:04.249Z,19.41
2018-05-21T04:38:04.282Z,19.65
2018-05-21T04:39:04.241Z,19.76
2018-05-21T04:40:04.277Z,19.87
2018-05-21T04:41:04.322Z,20.02
2018-05-21T04:42:03.755Z,20.24
2018-05-21T04:43:04.244Z,20.54
2018-05-21T04:44:04.284Z,20.82
2018-05-21T04:45:04.014Z,21.09
2018-05-21T04:46:04.007Z,21.19
2018-05-21T04:47:03.996Z,21.07
2018-05-21T04:48:04.255Z,21.1
2018-05-21T04:49:04.019Z,21.06
2018-05-21T04:50:04.025Z,21.24
2018-05-21T04:51:04.289Z,21.32
2018-05-21T04:52:04.256Z,21.46
2018-05-21T04:53:04.285Z,21.64
2018-05-21T04:54:04.016Z,21.77
2018-05-21T04:55:04.037Z,22
2018-05-21T04:56:04.010Z,22.35
2018-05-21T04:57:04.043Z,22.58
2018-05-21T04:58:04.031Z,22.9
2018-05-21T04:59:04.020Z,23.2
2018-05-21T05:00:04.311Z,23.43
2018-05-21T05:01:04.051Z,23.83
2018-05-21T05:02:04.309Z,24.12
2018-05-21T05:03:04.035Z,24.3
2018-05-21T05:04:04.046Z,24.49
2018-05-21T05:05:04.087Z,24.58
2018-05-21T05:06:04.074Z,24.52
2018-05-21T05:07:04.351Z,24.31
2018-05-21T05:08:04.323Z,24.2
2018-05-21T05:09:04.354Z,24.16
2018-05-21T05:10:04.071Z,24.34
2018-05-21T05:11:04.112Z,24.64
2018-05-21T05:12:04.345Z,24.9
2018-05-21T05:13:04.112Z,24.88
2018-05-21T05:14:04.374Z,24.91
2018-05-21T05:15:04.129Z,25
2018-05-21T05:16:04.409Z,25.03
2018-05-21T05:17:03.859Z,25.13
2018-05-21T05:18:04.129Z,25.18
2018-05-21T05:19:03.891Z,25.25
2018-05-21T05:20:04.154Z,25.43
2018-05-21T05:21:04.271Z,25.6
2018-05-21T05:22:04.157Z,26.05
2018-05-21T05:23:04.443Z,26.1
2018-05-21T05:24:04.150Z,26.4
2018-05-21T05:25:04.188Z,26.67
2018-05-21T05:26:04.446Z,26.84
2018-05-21T05:27:04.198Z,26.97
2018-05-21T05:28:04.430Z,27.04
2018-05-21T05:29:04.213Z,27.02
2018-05-21T05:30:04.462Z,27.03
2018-05-21T05:31:04.226Z,26.89
2018-05-21T05:32:03.953Z,26.76
2018-05-21T05:33:04.216Z,26.67
2018-05-21T05:34:03.978Z,26.84
2018-05-21T05:35:04.255Z,26.8
2018-05-21T05:36:04.705Z,27
2018-05-21T05:37:04.263Z,27.1
2018-05-21T05:38:04.520Z,27.5
2018-05-21T05:39:04.518Z,27.72
2018-05-21T05:40:04.295Z,28.04
2018-05-21T05:41:04.280Z,28.06
2018-05-21T05:42:04.415Z,28.19
2018-05-21T05:43:04.555Z,28.33
2018-05-21T05:44:04.070Z,28.37
2018-05-21T05:45:04.305Z,28.39
2018-05-21T05:46:04.330Z,28.41
2018-05-21T05:47:04.598Z,28.51
2018-05-21T05:48:04.104Z,28.56
2018-05-21T05:49:04.364Z,28.81
2018-05-21T05:50:04.363Z,28.88
2018-05-21T05:51:04.650Z,29.02
2018-05-21T05:52:04.672Z,28.95
2018-05-21T05:53:04.634Z,28.92
2018-05-21T05:54:04.654Z,29.14
2018-05-21T05:55:04.395Z,29.12
2018-05-21T05:56:04.704Z,29.11
2018-05-21T05:57:04.679Z,29.16
2018-05-21T05:58:04.451Z,28.98
2018-05-21T05:59:04.434Z,29.04
2018-05-21T06:00:04.471Z,29.12
2018-05-21T06:01:04.456Z,29.21
2018-05-21T06:02:04.483Z,29.45
2018-05-21T06:03:04.759Z,29.39
2018-05-21T06:04:04.736Z,29.37
2018-05-21T06:05:04.749Z,29.49
2018-05-21T06:06:04.516Z,29.58
2018-05-21T06:07:04.281Z,29.65
2018-05-21T06:08:04.552Z,29.79
2018-05-21T06:09:04.792Z,29.76
2018-05-21T06:10:04.893Z,29.6
2018-05-21T06:11:04.641Z,29.37
2018-05-21T06:12:04.590Z,29.43
2018-05-21T06:13:04.832Z,29.39
2018-05-21T06:14:04.860Z,29.43
2018-05-21T06:15:04.894Z,29.43
2018-05-21T06:16:04.860Z,29.58
2018-05-21T06:17:04.644Z,29.76
2018-05-21T06:18:04.381Z,29.76
2018-05-21T06:19:04.681Z,29.8
2018-05-21T06:20:04.647Z,29.83
2018-05-21T06:21:04.667Z,30.05
2018-05-21T06:22:04.935Z,30
2018-05-21T06:23:04.709Z,30.17
2018-05-21T06:24:04.980Z,30.43
2018-05-21T06:25:04.975Z,30.57
2018-05-21T06:26:04.793Z,30.58
2018-05-21T06:27:04.978Z,30.61
2018-05-21T06:28:04.778Z,30.64
2018-05-21T06:29:04.753Z,30.84
2018-05-21T06:30:05.051Z,31.13
2018-05-21T06:31:05.025Z,31.35
2018-05-21T06:32:04.815Z,31.48
2018-05-21T06:33:05.054Z,31.43
2018-05-21T06:34:05.527Z,31.2
2018-05-21T06:35:05.073Z,31.25
2018-05-21T06:36:05.121Z,31.2
2018-05-21T06:37:04.871Z,31.34
2018-05-21T06:38:04.874Z,31.47
2018-05-21T06:39:05.130Z,31.51
2018-05-21T06:40:04.918Z,31.65
2018-05-21T06:41:05.014Z,31.72
2018-05-21T06:42:05.180Z,31.7
2018-05-21T06:43:05.181Z,31.62
2018-05-21T06:44:05.025Z,31.68
2018-05-21T06:45:04.960Z,31.73
2018-05-21T06:46:04.997Z,31.75
2018-05-21T06:47:04.978Z,31.96
2018-05-21T06:48:04.763Z,32.13
2018-05-21T06:49:05.263Z,32.55
2018-05-21T06:50:05.036Z,32.65
2018-05-21T06:51:04.778Z,32.62
2018-05-21T06:52:05.335Z,32.44
2018-05-21T06:53:04.828Z,32.52
2018-05-21T06:54:05.350Z,32.62
2018-05-21T06:55:05.088Z,32.94
2018-05-21T06:56:05.127Z,33.18
2018-05-21T06:57:05.401Z,33.26
2018-05-21T06:58:05.149Z,33.47
2018-05-21T06:59:06.696Z,33.49
2018-05-21T07:00:05.159Z,33.63
2018-05-21T07:01:05.460Z,33.65
2018-05-21T07:02:05.195Z,33.59
2018-05-21T07:03:05.474Z,33.63
2018-05-21T07:04:05.477Z,33.69
2018-05-21T07:05:05.519Z,33.78
2018-05-21T07:06:05.515Z,33.88
2018-05-21T07:07:05.280Z,34.09
2018-05-21T07:08:05.842Z,34.25
2018-05-21T07:09:05.326Z,34.27
2018-05-21T07:10:05.564Z,34.03
2018-05-21T07:11:05.598Z,33.73
2018-05-21T07:12:05.339Z,33.59
2018-05-21T07:13:05.636Z,33.56
2018-05-21T07:14:05.374Z,33.34
2018-05-21T07:15:05.678Z,33.32
2018-05-21T07:16:05.646Z,33.21
2018-05-21T07:17:05.180Z,33.03
2018-05-21T07:18:05.723Z,32.96
2018-05-21T07:19:05.724Z,32.87
2018-05-21T07:20:05.454Z,32.82
2018-05-21T07:21:05.761Z,32.96
2018-05-21T07:22:05.767Z,33.14
2018-05-21T07:23:05.776Z,33.31
2018-05-21T07:24:05.770Z,33.42
2018-05-21T07:25:05.526Z,33.34
2018-05-21T07:26:05.834Z,33.26
2018-05-21T07:27:05.577Z,33.32
2018-05-21T07:28:05.599Z,33.32
2018-05-21T07:29:05.845Z,33.31
2018-05-21T07:30:05.884Z,33.34
2018-05-21T07:31:05.634Z,33.51
2018-05-21T07:32:05.638Z,33.78
2018-05-21T07:33:05.935Z,33.94
2018-05-21T07:34:05.931Z,33.97
2018-05-21T07:35:05.692Z,33.86
2018-05-21T07:36:05.952Z,33.86
2018-05-21T07:37:05.990Z,33.82
2018-05-21T07:38:05.769Z,33.91
2018-05-21T07:39:05.775Z,33.97
2018-05-21T07:40:06.006Z,33.95
2018-05-21T07:41:06.039Z,34.03
2018-05-21T07:42:05.803Z,34
2018-05-21T07:43:06.069Z,34.08
2018-05-21T07:44:06.072Z,34.05
2018-05-21T07:45:05.872Z,34
2018-05-21T07:46:05.842Z,34
2018-05-21T07:47:06.146Z,33.97
2018-05-21T07:48:05.616Z,33.95
2018-05-21T07:49:06.204Z,33.97
2018-05-21T07:50:05.644Z,34
2018-05-21T07:51:05.928Z,34.06
2018-05-21T07:52:05.932Z,34.22
2018-05-21T07:53:05.974Z,34.4
2018-05-21T07:54:05.735Z,34.59
2018-05-21T07:55:05.993Z,34.88
2018-05-21T07:56:05.987Z,34.89
2018-05-21T07:57:06.288Z,34.96
2018-05-21T07:58:05.771Z,34.87
2018-05-21T07:59:06.365Z,34.84
2018-05-21T08:00:06.329Z,34.87
2018-05-21T08:01:06.097Z,34.75
2018-05-21T08:02:06.092Z,34.62
2018-05-21T08:03:05.880Z,34.46
2018-05-21T08:04:06.363Z,34.22
2018-05-21T08:05:05.916Z,34.06
2018-05-21T08:06:05.892Z,33.82
2018-05-21T08:07:06.175Z,33.6
2018-05-21T08:08:06.424Z,33.31
2018-05-21T08:09:06.213Z,33.07
2018-05-21T08:10:06.489Z,32.96
2018-05-21T08:11:06.488Z,32.82
2018-05-21T08:12:06.224Z,32.84
2018-05-21T08:13:06.492Z,32.78
2018-05-21T08:14:06.537Z,32.75
2018-05-21T08:15:06.284Z,32.57
2018-05-21T08:16:06.052Z,32.59
2018-05-21T08:17:06.561Z,32.56
2018-05-21T08:18:06.346Z,32.29
2018-05-21T08:19:06.582Z,32.25
2018-05-21T08:20:06.627Z,32.21
2018-05-21T08:21:06.606Z,32.03
2018-05-21T08:22:06.416Z,32.07
2018-05-21T08:23:06.439Z,31.96
2018-05-21T08:24:06.398Z,31.81
2018-05-21T08:25:06.435Z,31.7
2018-05-21T08:26:06.448Z,31.75
2018-05-21T08:27:06.189Z,31.65
2018-05-21T08:28:06.445Z,31.54
2018-05-21T08:29:06.714Z,31.39
2018-05-21T08:30:06.491Z,31.17
2018-05-21T08:31:06.514Z,30.84
2018-05-21T08:32:06.523Z,30.64
2018-05-21T08:33:06.507Z,30.38
2018-05-21T08:34:06.290Z,30.17
2018-05-21T08:35:06.792Z,29.92
2018-05-21T08:36:06.573Z,30.02
2018-05-21T08:37:06.564Z,29.97
2018-05-21T08:38:06.599Z,29.95
2018-05-21T08:39:06.592Z,29.83
2018-05-21T08:40:06.629Z,29.83
2018-05-21T08:41:06.870Z,29.82
2018-05-21T08:42:06.375Z,29.76
2018-05-21T08:43:06.916Z,29.67
2018-05-21T08:44:06.677Z,29.45
2018-05-21T08:45:06.701Z,29.18
2018-05-21T08:46:06.932Z,28.95
2018-05-21T08:47:06.694Z,28.81
2018-05-21T08:48:06.984Z,28.64
2018-05-21T08:49:06.957Z,28.49
2018-05-21T08:50:06.738Z,28.09
2018-05-21T08:51:06.980Z,27.79
2018-05-21T08:52:06.771Z,27.55
2018-05-21T08:53:06.748Z,27.13
2018-05-21T08:54:06.797Z,26.87
2018-05-21T08:55:07.131Z,26.63
2018-05-21T08:56:07.067Z,26.32
2018-05-21T08:57:07.040Z,26.07
2018-05-21T08:58:07.064Z,25.85
2018-05-21T08:59:06.806Z,25.72
2018-05-21T09:00:06.846Z,25.67
2018-05-21T09:01:07.103Z,25.45
2018-05-21T09:02:06.823Z,25.38
2018-05-21T09:03:07.090Z,25.21
2018-05-21T09:04:06.837Z,25.09
2018-05-21T09:05:07.124Z,24.96
2018-05-21T09:06:06.844Z,24.85
2018-05-21T09:07:06.615Z,24.81
2018-05-21T09:08:06.595Z,24.64
2018-05-21T09:09:07.153Z,24.45
2018-05-21T09:10:07.326Z,24.3
2018-05-21T09:11:06.877Z,24.15
2018-05-21T09:12:06.897Z,24.09
2018-05-21T09:13:07.161Z,23.91
2018-05-21T09:14:07.140Z,23.8
2018-05-21T09:15:07.144Z,23.68
2018-05-21T09:16:07.009Z,23.57
2018-05-21T09:17:06.902Z,23.48
2018-05-21T09:18:06.630Z,23.46
2018-05-21T09:19:06.888Z,23.42
2018-05-21T09:20:07.143Z,23.33
2018-05-21T09:21:06.921Z,23.25
2018-05-21T09:22:07.165Z,23.22
2018-05-21T09:23:07.183Z,23.25
2018-05-21T09:24:07.139Z,23.2
2018-05-21T09:25:06.915Z,23.2
2018-05-21T09:26:07.437Z,23.2
2018-05-21T09:27:06.905Z,23.19
2018-05-21T09:28:07.176Z,23.19
2018-05-21T09:29:07.146Z,23.07
2018-05-21T09:30:06.645Z,23.2
2018-05-21T09:31:06.902Z,23.17
2018-05-21T09:32:06.969Z,23.02
2018-05-21T09:33:06.965Z,23.07
2018-05-21T09:34:06.905Z,22.9
2018-05-21T09:35:06.909Z,22.95
2018-05-21T09:36:14.155Z,23.02
2018-05-21T09:37:07.191Z,22.98
2018-05-21T09:38:07.158Z,22.86
2018-05-21T09:39:06.911Z,22.88
2018-05-21T09:40:07.185Z,22.85
2018-05-21T09:41:06.908Z,22.9
2018-05-21T09:42:08.576Z,22.9
2018-05-21T09:43:06.923Z,22.92
2018-05-21T09:44:07.173Z,23.01
2018-05-21T09:47:06.900Z,23.05
2018-05-21T09:48:07.209Z,23.07
2018-05-21T09:49:06.900Z,23.05
2018-05-21T09:50:06.932Z,23.09
2018-05-21T09:51:06.944Z,23.07
2018-05-21T09:52:06.920Z,23.09
2018-05-21T09:53:07.155Z,23.02
2018-05-21T09:54:07.152Z,23.17
2018-05-21T09:55:07.188Z,23.13
2018-05-21T09:56:07.175Z,23.19
2018-05-21T09:57:07.189Z,23.19
2018-05-21T09:58:07.153Z,23.23
2018-05-21T09:59:06.939Z,23.28
2018-05-21T10:00:07.183Z,23.22
2018-05-21T10:01:06.673Z,23.22
2018-05-21T10:02:06.905Z,23.15
2018-05-21T10:03:07.190Z,23.05
2018-05-21T10:04:07.175Z,23.07
2018-05-21T10:05:06.673Z,22.92
2018-05-21T10:06:06.651Z,22.88
2018-05-21T10:07:06.925Z,22.98
2018-05-21T10:08:07.188Z,22.95
2018-05-21T10:09:06.905Z,23.05
2018-05-21T10:10:06.905Z,23.05
2018-05-21T10:11:07.185Z,23.1
2018-05-21T10:12:07.092Z,23.05
2018-05-21T10:13:07.213Z,23.07
2018-05-21T10:14:07.165Z,23.1
2018-05-21T10:15:06.955Z,23.12
2018-05-21T10:16:06.926Z,23.04
2018-05-21T10:17:06.938Z,23.12
2018-05-21T10:18:07.181Z,23.05
2018-05-21T10:19:06.936Z,23.04
2018-05-21T10:20:06.915Z,22.98
2018-05-21T10:21:06.968Z,22.91
2018-05-21T10:22:06.905Z,22.9
2018-05-21T10:23:07.165Z,22.98
2018-05-21T10:24:07.173Z,23.02
2018-05-21T10:25:06.937Z,23.05
2018-05-21T10:26:07.579Z,23.04
2018-05-21T10:27:07.164Z,23.04
2018-05-21T10:28:07.247Z,23.05
2018-05-21T10:29:06.913Z,22.98
2018-05-21T10:30:06.941Z,22.94
2018-05-21T10:31:06.912Z,22.95
2018-05-21T10:32:06.679Z,22.92
2018-05-21T10:33:06.936Z,22.91
2018-05-21T10:34:06.912Z,22.95
2018-05-21T10:35:07.202Z,23.05
2018-05-21T10:36:07.189Z,23.07
2018-05-21T10:37:06.697Z,23.04
2018-05-21T10:38:06.906Z,23.1
2018-05-21T10:39:06.659Z,23.22
2018-05-21T10:40:07.182Z,23.13
2018-05-21T10:41:07.196Z,23.13
2018-05-21T10:42:07.199Z,23.17
2018-05-21T10:43:06.913Z,23.16
2018-05-21T10:44:06.923Z,23.09
2018-05-21T10:45:06.908Z,23.12
2018-05-21T10:46:06.953Z,23.1
2018-05-21T10:47:06.918Z,23.13
2018-05-21T10:48:07.207Z,23.23
2018-05-21T10:49:06.914Z,23.33
2018-05-21T10:50:07.196Z,23.42
2018-05-21T10:51:07.220Z,23.38
2018-05-21T10:52:06.929Z,23.38
2018-05-21T10:53:06.924Z,23.48
2018-05-21T10:54:06.950Z,23.42
2018-05-21T10:55:07.208Z,23.36
2018-05-21T10:56:07.289Z,23.35
2018-05-21T10:57:07.165Z,23.38
2018-05-21T10:58:06.676Z,23.4
2018-05-21T10:59:06.923Z,23.36
2018-05-21T11:00:07.199Z,23.38
2018-05-21T11:01:06.912Z,23.46
2018-05-21T11:02:07.157Z,23.51
2018-05-21T11:03:06.926Z,23.55
2018-05-21T11:04:06.934Z,23.66
2018-05-21T11:05:07.161Z,23.66
2018-05-21T11:06:06.943Z,23.7
2018-05-21T11:07:07.171Z,23.69
2018-05-21T11:08:06.926Z,23.83
2018-05-21T11:09:06.908Z,23.83
2018-05-21T11:10:07.205Z,23.83
2018-05-21T11:11:06.969Z,24
2018-05-21T11:12:07.479Z,23.95
2018-05-21T11:13:07.186Z,23.94
2018-05-21T11:14:07.180Z,24
2018-05-21T11:15:06.935Z,23.94
2018-05-21T11:16:07.191Z,23.87
2018-05-21T11:17:06.936Z,23.94
2018-05-21T11:18:07.385Z,23.9
2018-05-21T11:19:06.936Z,23.93
2018-05-21T11:20:06.911Z,24.02
2018-05-21T11:21:06.698Z,23.93
2018-05-21T11:22:07.163Z,24
2018-05-21T11:23:06.963Z,24.08
2018-05-21T11:24:06.947Z,24.12
2018-05-21T11:25:07.168Z,24.25
2018-05-21T11:26:06.945Z,24.31
2018-05-21T11:27:06.689Z,24.34
2018-05-21T11:28:06.946Z,24.39
2018-05-21T11:29:07.172Z,24.49
2018-05-21T11:30:06.915Z,24.5
2018-05-21T11:31:07.210Z,24.65
2018-05-21T11:32:07.381Z,24.73
2018-05-21T11:33:06.947Z,24.77
2018-05-21T11:34:06.922Z,24.93
2018-05-21T11:35:06.956Z,25.02
2018-05-21T11:36:06.922Z,25.15
2018-05-21T11:37:06.952Z,25.18
2018-05-21T11:38:06.670Z,25.32
2018-05-21T11:39:06.713Z,25.55
2018-05-21T11:40:07.201Z,25.65
2018-05-21T11:41:07.536Z,25.77
2018-05-21T11:42:06.944Z,25.9
2018-05-21T11:43:07.197Z,25.97
2018-05-21T11:44:07.375Z,25.99
2018-05-21T11:45:06.972Z,26.1
2018-05-21T11:46:06.975Z,26.13
2018-05-21T11:47:06.960Z,26.12
2018-05-21T11:48:07.213Z,26.18
2018-05-21T11:49:07.238Z,26.05
2018-05-21T11:50:06.972Z,25.91
2018-05-21T11:51:07.248Z,25.8
2018-05-21T11:52:06.955Z,25.87
2018-05-21T11:53:06.989Z,25.88
2018-05-21T11:54:07.217Z,25.95
2018-05-21T11:55:07.251Z,26.01
2018-05-21T11:56:06.994Z,25.97
2018-05-21T11:57:06.993Z,25.92
2018-05-21T11:58:06.736Z,26.01
2018-05-21T11:59:06.974Z,26.06
2018-05-21T12:00:06.980Z,25.99
2018-05-21T12:01:07.006Z,26.09
2018-05-21T12:02:07.070Z,26.02
2018-05-21T12:03:07.243Z,26.15
2018-05-21T12:04:07.248Z,26.18
2018-05-21T12:05:06.983Z,26.29
2018-05-21T12:06:07.016Z,26.29
2018-05-21T12:07:07.247Z,26.37
2018-05-21T12:08:07.033Z,26.4
2018-05-21T12:09:07.083Z,26.55
2018-05-21T12:10:07.027Z,26.54
2018-05-21T12:11:07.269Z,26.6
2018-05-21T12:12:07.036Z,26.65
2018-05-21T12:13:07.267Z,26.69
2018-05-21T12:14:07.311Z,26.82
2018-05-21T12:15:06.777Z,26.81
2018-05-21T12:16:07.283Z,26.84
2018-05-21T12:17:07.314Z,26.72
2018-05-21T12:18:07.050Z,26.7
2018-05-21T12:19:07.280Z,26.6
2018-05-21T12:20:07.297Z,26.54
2018-05-21T12:21:07.294Z,26.45
2018-05-21T12:22:07.088Z,26.4
2018-05-21T12:23:07.303Z,26.4
2018-05-21T12:24:07.067Z,26.39
2018-05-21T12:25:07.055Z,26.33
2018-05-21T12:26:07.558Z,26.18
2018-05-21T12:27:07.301Z,26.07
2018-05-21T12:28:07.371Z,25.98
2018-05-21T12:29:07.310Z,26.05
2018-05-21T12:30:07.421Z,25.87
2018-05-21T12:31:07.091Z,25.87
2018-05-21T12:32:07.098Z,25.77
2018-05-21T12:33:07.316Z,25.83
2018-05-21T12:34:07.073Z,25.85
2018-05-21T12:35:06.849Z,25.88
2018-05-21T12:36:07.092Z,25.85
2018-05-21T12:37:07.104Z,25.82
2018-05-21T12:38:07.528Z,25.9
2018-05-21T12:39:07.407Z,25.82
2018-05-21T12:40:07.354Z,25.85
2018-05-21T12:41:07.335Z,25.85
2018-05-21T12:42:07.121Z,25.8
2018-05-21T12:43:07.086Z,25.91
2018-05-21T12:44:07.107Z,25.99
2018-05-21T12:45:07.346Z,26.02
2018-05-21T12:46:07.386Z,26.01
2018-05-21T12:47:07.127Z,25.98
2018-05-21T12:48:07.119Z,25.92
2018-05-21T12:49:07.104Z,25.82
2018-05-21T12:50:07.114Z,25.8
2018-05-21T12:51:07.390Z,25.9
2018-05-21T12:52:07.147Z,25.9
2018-05-21T12:53:07.111Z,25.79
2018-05-21T12:54:07.145Z,25.76
2018-05-21T12:55:07.390Z,25.77
2018-05-21T12:56:07.407Z,25.64
2018-05-21T12:57:07.120Z,25.65
2018-05-21T12:58:07.423Z,25.67